sensor_id;sensor_type;location;lat;lon;timestamp;temperature;humidity
8711;DHT22;4392;47.400;8.062;2023-09-08T00:00:36;24.00;99.90
8711;DHT22;4392;47.400;8.062;2023-09-08T00:03:02;24.00;99.90
8711;DHT22;4392;47.400;8.062;2023-09-08T00:05:28;24.00;99.90
8711;DHT22;4392;47.400;8.062;2023-09-08T00:07:59;24.00;99.90
8711;DHT22;4392;47.400;8.062;2023-09-08T00:10:24;24.00;99.90
8711;DHT22;4392;47.400;8.062;2023-09-08T00:12:50;23.90;99.90
8711;DHT22;4392;47.400;8.062;2023-09-08T00:15:16;24.20;99.90
8711;DHT22;4392;47.400;8.062;2023-09-08T00:17:42;24.10;99.90
8711;DHT22;4392;47.400;8.062;2023-09-08T00:22:39;23.90;99.90
8711;DHT22;4392;47.400;8.062;2023-09-08T00:25:05;23.90;99.90
8711;DHT22;4392;47.400;8.062;2023-09-08T00:27:31;23.80;99.90
8711;DHT22;4392;47.400;8.062;2023-09-08T00:29:59;23.80;99.90
8711;DHT22;4392;47.400;8.062;2023-09-08T00:32:27;23.90;99.90
8711;DHT22;4392;47.400;8.062;2023-09-08T00:34:55;24.00;99.90
8711;DHT22;4392;47.400;8.062;2023-09-08T00:37:20;24.00;99.90
8711;DHT22;4392;47.400;8.062;2023-09-08T00:39:49;23.90;99.90
8711;DHT22;4392;47.400;8.062;2023-09-08T00:42:17;23.80;99.90
8711;DHT22;4392;47.400;8.062;2023-09-08T00:44:43;23.70;99.90
8711;DHT22;4392;47.400;8.062;2023-09-08T00:47:09;23.70;99.90
8711;DHT22;4392;47.400;8.062;2023-09-08T00:49:34;23.70;99.90
8711;DHT22;4392;47.400;8.062;2023-09-08T00:52:08;23.70;99.90
8711;DHT22;4392;47.400;8.062;2023-09-08T00:54:34;23.70;99.90
8711;DHT22;4392;47.400;8.062;2023-09-08T00:57:06;23.80;99.90
8711;DHT22;4392;47.400;8.062;2023-09-08T00:59:32;23.90;99.90
8711;DHT22;4392;47.400;8.062;2023-09-08T01:02:05;23.80;99.90
8711;DHT22;4392;47.400;8.062;2023-09-08T01:04:31;23.80;99.90
8711;DHT22;4392;47.400;8.062;2023-09-08T01:06:58;23.90;99.90
8711;DHT22;4392;47.400;8.062;2023-09-08T01:09:27;24.10;99.90
8711;DHT22;4392;47.400;8.062;2023-09-08T01:11:54;24.10;99.90
8711;DHT22;4392;47.400;8.062;2023-09-08T01:14:21;23.90;99.90
8711;DHT22;4392;47.400;8.062;2023-09-08T01:16:46;23.80;99.90
8711;DHT22;4392;47.400;8.062;2023-09-08T01:19:19;23.70;99.90
8711;DHT22;4392;47.400;8.062;2023-09-08T01:25:20;23.50;99.90
8711;DHT22;4392;47.400;8.062;2023-09-08T01:27:50;23.50;99.90
8711;DHT22;4392;47.400;8.062;2023-09-08T01:30:24;23.50;99.90
8711;DHT22;4392;47.400;8.062;2023-09-08T01:32:56;23.50;99.90
8711;DHT22;4392;47.400;8.062;2023-09-08T01:35:22;23.50;99.90
8711;DHT22;4392;47.400;8.062;2023-09-08T01:37:50;23.60;99.90
8711;DHT22;4392;47.400;8.062;2023-09-08T01:40:18;23.70;99.90
8711;DHT22;4392;47.400;8.062;2023-09-08T01:42:45;23.80;99.90
8711;DHT22;4392;47.400;8.062;2023-09-08T01:45:11;23.90;99.90
8711;DHT22;4392;47.400;8.062;2023-09-08T01:47:37;24.00;99.90
8711;DHT22;4392;47.400;8.062;2023-09-08T01:50:03;24.00;99.90
8711;DHT22;4392;47.400;8.062;2023-09-08T01:52:32;24.10;99.90
8711;DHT22;4392;47.400;8.062;2023-09-08T01:54:57;24.10;99.90
8711;DHT22;4392;47.400;8.062;2023-09-08T01:57:23;24.10;99.90
8711;DHT22;4392;47.400;8.062;2023-09-08T01:59:50;24.10;99.90
8711;DHT22;4392;47.400;8.062;2023-09-08T02:02:16;24.10;99.90
8711;DHT22;4392;47.400;8.062;2023-09-08T02:04:42;24.00;99.90
8711;DHT22;4392;47.400;8.062;2023-09-08T02:07:07;24.00;99.90
8711;DHT22;4392;47.400;8.062;2023-09-08T02:09:37;24.10;99.90
8711;DHT22;4392;47.400;8.062;2023-09-08T02:12:04;24.00;99.90
8711;DHT22;4392;47.400;8.062;2023-09-08T02:14:30;24.00;99.90
8711;DHT22;4392;47.400;8.062;2023-09-08T02:16:57;23.90;99.90
8711;DHT22;4392;47.400;8.062;2023-09-08T02:19:25;23.90;99.90
8711;DHT22;4392;47.400;8.062;2023-09-08T02:21:59;23.80;99.90
8711;DHT22;4392;47.400;8.062;2023-09-08T02:24:25;23.70;99.90
8711;DHT22;4392;47.400;8.062;2023-09-08T02:26:50;23.60;99.90
8711;DHT22;4392;47.400;8.062;2023-09-08T02:29:17;23.50;99.90
8711;DHT22;4392;47.400;8.062;2023-09-08T02:31:50;23.40;99.90
8711;DHT22;4392;47.400;8.062;2023-09-08T02:34:16;23.30;99.90
8711;DHT22;4392;47.400;8.062;2023-09-08T02:36:47;23.30;99.90
8711;DHT22;4392;47.400;8.062;2023-09-08T02:39:13;23.20;99.90
8711;DHT22;4392;47.400;8.062;2023-09-08T02:41:43;23.20;99.90
8711;DHT22;4392;47.400;8.062;2023-09-08T02:44:12;23.10;99.90
8711;DHT22;4392;47.400;8.062;2023-09-08T02:46:41;23.00;99.90
8711;DHT22;4392;47.400;8.062;2023-09-08T02:49:06;23.00;99.90
8711;DHT22;4392;47.400;8.062;2023-09-08T02:51:32;23.00;99.90
8711;DHT22;4392;47.400;8.062;2023-09-08T02:54:01;23.00;99.90
8711;DHT22;4392;47.400;8.062;2023-09-08T02:56:26;23.00;99.90
8711;DHT22;4392;47.400;8.062;2023-09-08T02:58:52;23.00;99.90
8711;DHT22;4392;47.400;8.062;2023-09-08T03:01:20;22.90;99.90
8711;DHT22;4392;47.400;8.062;2023-09-08T03:03:46;22.80;99.90
8711;DHT22;4392;47.400;8.062;2023-09-08T03:06:18;22.80;99.90
8711;DHT22;4392;47.400;8.062;2023-09-08T03:08:48;22.70;99.90
8711;DHT22;4392;47.400;8.062;2023-09-08T03:11:13;22.80;99.90
8711;DHT22;4392;47.400;8.062;2023-09-08T03:13:39;22.80;99.90
8711;DHT22;4392;47.400;8.062;2023-09-08T03:16:06;22.80;99.90
8711;DHT22;4392;47.400;8.062;2023-09-08T03:18:36;22.80;99.90
8711;DHT22;4392;47.400;8.062;2023-09-08T03:21:06;22.70;99.90
8711;DHT22;4392;47.400;8.062;2023-09-08T03:23:41;22.70;99.90
8711;DHT22;4392;47.400;8.062;2023-09-08T03:28:41;22.70;99.90
8711;DHT22;4392;47.400;8.062;2023-09-08T03:31:07;22.70;99.90
8711;DHT22;4392;47.400;8.062;2023-09-08T03:33:33;22.70;99.90
8711;DHT22;4392;47.400;8.062;2023-09-08T03:36:01;22.70;99.90
8711;DHT22;4392;47.400;8.062;2023-09-08T03:38:29;22.60;99.90
8711;DHT22;4392;47.400;8.062;2023-09-08T03:41:03;22.70;99.90
8711;DHT22;4392;47.400;8.062;2023-09-08T03:43:31;22.80;99.90
8711;DHT22;4392;47.400;8.062;2023-09-08T03:45:57;22.80;99.90
8711;DHT22;4392;47.400;8.062;2023-09-08T03:48:26;22.70;99.90
8711;DHT22;4392;47.400;8.062;2023-09-08T03:50:52;22.80;99.90
8711;DHT22;4392;47.400;8.062;2023-09-08T03:53:18;23.10;99.90
8711;DHT22;4392;47.400;8.062;2023-09-08T03:55:44;23.10;99.90
8711;DHT22;4392;47.400;8.062;2023-09-08T03:58:09;22.90;99.90
8711;DHT22;4392;47.400;8.062;2023-09-08T04:00:43;22.80;99.90
8711;DHT22;4392;47.400;8.062;2023-09-08T04:03:09;22.80;99.90
8711;DHT22;4392;47.400;8.062;2023-09-08T04:05:34;22.70;99.90
8711;DHT22;4392;47.400;8.062;2023-09-08T04:08:00;22.60;99.90
8711;DHT22;4392;47.400;8.062;2023-09-08T04:10:32;22.60;99.90
8711;DHT22;4392;47.400;8.062;2023-09-08T04:12:57;22.60;99.90
8711;DHT22;4392;47.400;8.062;2023-09-08T04:15:23;22.60;99.90
8711;DHT22;4392;47.400;8.062;2023-09-08T04:17:49;22.50;99.90
8711;DHT22;4392;47.400;8.062;2023-09-08T04:20:20;22.50;99.90
8711;DHT22;4392;47.400;8.062;2023-09-08T04:22:46;22.50;99.90
8711;DHT22;4392;47.400;8.062;2023-09-08T04:25:13;22.50;99.90
8711;DHT22;4392;47.400;8.062;2023-09-08T04:27:45;22.50;99.90
8711;DHT22;4392;47.400;8.062;2023-09-08T04:30:14;22.40;99.90
8711;DHT22;4392;47.400;8.062;2023-09-08T04:32:39;22.40;99.90
8711;DHT22;4392;47.400;8.062;2023-09-08T04:35:09;22.60;99.90
8711;DHT22;4392;47.400;8.062;2023-09-08T04:37:35;22.80;99.90
8711;DHT22;4392;47.400;8.062;2023-09-08T04:40:02;23.00;99.90
8711;DHT22;4392;47.400;8.062;2023-09-08T04:42:28;23.00;99.90
8711;DHT22;4392;47.400;8.062;2023-09-08T04:44:56;23.10;99.90
8711;DHT22;4392;47.400;8.062;2023-09-08T04:47:22;23.10;99.90
8711;DHT22;4392;47.400;8.062;2023-09-08T04:49:48;23.10;99.90
8711;DHT22;4392;47.400;8.062;2023-09-08T04:52:13;23.10;99.90
8711;DHT22;4392;47.400;8.062;2023-09-08T04:54:47;23.20;99.90
8711;DHT22;4392;47.400;8.062;2023-09-08T04:57:13;23.30;99.90
8711;DHT22;4392;47.400;8.062;2023-09-08T04:59:39;23.30;99.90
8711;DHT22;4392;47.400;8.062;2023-09-08T05:02:11;23.30;99.90
8711;DHT22;4392;47.400;8.062;2023-09-08T05:04:37;23.30;99.90
8711;DHT22;4392;47.400;8.062;2023-09-08T05:07:03;23.30;99.90
8711;DHT22;4392;47.400;8.062;2023-09-08T05:09:29;23.30;99.90
8711;DHT22;4392;47.400;8.062;2023-09-08T05:11:55;23.40;99.90
8711;DHT22;4392;47.400;8.062;2023-09-08T05:14:26;23.40;99.90
8711;DHT22;4392;47.400;8.062;2023-09-08T05:16:52;23.40;99.90
8711;DHT22;4392;47.400;8.062;2023-09-08T05:19:28;23.40;99.90
8711;DHT22;4392;47.400;8.062;2023-09-08T05:21:55;23.40;99.90
8711;DHT22;4392;47.400;8.062;2023-09-08T05:24:26;23.40;99.90
8711;DHT22;4392;47.400;8.062;2023-09-08T05:26:53;23.40;99.90
8711;DHT22;4392;47.400;8.062;2023-09-08T05:29:18;23.30;99.90
8711;DHT22;4392;47.400;8.062;2023-09-08T05:31:51;23.40;99.90
8711;DHT22;4392;47.400;8.062;2023-09-08T05:34:17;23.40;99.90
8711;DHT22;4392;47.400;8.062;2023-09-08T05:36:45;23.40;99.90
8711;DHT22;4392;47.400;8.062;2023-09-08T05:39:15;23.50;99.90
8711;DHT22;4392;47.400;8.062;2023-09-08T05:41:40;23.50;99.90
8711;DHT22;4392;47.400;8.062;2023-09-08T05:44:08;23.30;99.90
8711;DHT22;4392;47.400;8.062;2023-09-08T05:46:37;23.30;99.90
8711;DHT22;4392;47.400;8.062;2023-09-08T05:49:02;23.10;99.90
8711;DHT22;4392;47.400;8.062;2023-09-08T05:51:31;23.00;99.90
8711;DHT22;4392;47.400;8.062;2023-09-08T05:53:56;22.80;99.90
8711;DHT22;4392;47.400;8.062;2023-09-08T05:56:29;22.80;99.90
8711;DHT22;4392;47.400;8.062;2023-09-08T05:58:58;22.80;99.90
8711;DHT22;4392;47.400;8.062;2023-09-08T06:01:24;22.80;99.90
8711;DHT22;4392;47.400;8.062;2023-09-08T06:03:50;22.80;99.90
8711;DHT22;4392;47.400;8.062;2023-09-08T06:06:18;22.90;99.90
8711;DHT22;4392;47.400;8.062;2023-09-08T06:08:44;23.00;99.90
8711;DHT22;4392;47.400;8.062;2023-09-08T06:11:15;23.10;99.90
8711;DHT22;4392;47.400;8.062;2023-09-08T06:13:46;23.00;99.90
8711;DHT22;4392;47.400;8.062;2023-09-08T06:16:12;22.80;99.90
8711;DHT22;4392;47.400;8.062;2023-09-08T06:18:40;22.70;99.90
8711;DHT22;4392;47.400;8.062;2023-09-08T06:21:06;22.60;99.90
8711;DHT22;4392;47.400;8.062;2023-09-08T06:23:41;22.60;99.90
8711;DHT22;4392;47.400;8.062;2023-09-08T06:26:06;22.60;99.90
8711;DHT22;4392;47.400;8.062;2023-09-08T06:28:32;22.60;99.90
8711;DHT22;4392;47.400;8.062;2023-09-08T06:31:04;22.60;99.90
8711;DHT22;4392;47.400;8.062;2023-09-08T06:33:30;22.60;99.90
8711;DHT22;4392;47.400;8.062;2023-09-08T06:35:56;22.60;99.90
8711;DHT22;4392;47.400;8.062;2023-09-08T06:38:24;22.60;99.90
8711;DHT22;4392;47.400;8.062;2023-09-08T06:40:49;22.60;99.90
8711;DHT22;4392;47.400;8.062;2023-09-08T06:43:18;22.50;99.90
8711;DHT22;4392;47.400;8.062;2023-09-08T06:45:47;22.50;99.90
8711;DHT22;4392;47.400;8.062;2023-09-08T06:48:22;22.50;99.90
8711;DHT22;4392;47.400;8.062;2023-09-08T06:50:48;22.60;99.90
8711;DHT22;4392;47.400;8.062;2023-09-08T06:53:18;22.60;99.90
8711;DHT22;4392;47.400;8.062;2023-09-08T06:55:49;22.80;99.90
8711;DHT22;4392;47.400;8.062;2023-09-08T06:58:15;22.80;99.90
8711;DHT22;4392;47.400;8.062;2023-09-08T07:00:41;22.80;99.90
8711;DHT22;4392;47.400;8.062;2023-09-08T07:03:11;22.80;99.90
8711;DHT22;4392;47.400;8.062;2023-09-08T07:05:39;22.80;99.90
8711;DHT22;4392;47.400;8.062;2023-09-08T07:08:05;22.70;99.90
8711;DHT22;4392;47.400;8.062;2023-09-08T07:10:32;22.80;99.90
8711;DHT22;4392;47.400;8.062;2023-09-08T07:12:59;22.80;99.90
8711;DHT22;4392;47.400;8.062;2023-09-08T07:15:25;22.70;99.90
8711;DHT22;4392;47.400;8.062;2023-09-08T07:17:51;22.80;99.90
8711;DHT22;4392;47.400;8.062;2023-09-08T07:20:16;22.80;99.90
8711;DHT22;4392;47.400;8.062;2023-09-08T07:22:49;22.90;99.90
8711;DHT22;4392;47.400;8.062;2023-09-08T07:25:15;22.70;99.90
8711;DHT22;4392;47.400;8.062;2023-09-08T07:27:40;22.70;99.90
8711;DHT22;4392;47.400;8.062;2023-09-08T07:30:06;22.70;99.90
8711;DHT22;4392;47.400;8.062;2023-09-08T07:32:32;22.70;99.90
8711;DHT22;4392;47.400;8.062;2023-09-08T07:34:58;22.70;99.90
8711;DHT22;4392;47.400;8.062;2023-09-08T07:37:26;22.90;99.90
8711;DHT22;4392;47.400;8.062;2023-09-08T07:39:52;23.10;99.90
8711;DHT22;4392;47.400;8.062;2023-09-08T07:42:25;23.10;99.90
8711;DHT22;4392;47.400;8.062;2023-09-08T07:44:55;23.20;99.90
8711;DHT22;4392;47.400;8.062;2023-09-08T07:47:21;23.10;99.90
8711;DHT22;4392;47.400;8.062;2023-09-08T07:49:48;23.10;99.90
8711;DHT22;4392;47.400;8.062;2023-09-08T07:52:13;23.00;99.90
8711;DHT22;4392;47.400;8.062;2023-09-08T07:54:42;23.00;99.90
8711;DHT22;4392;47.400;8.062;2023-09-08T07:57:10;23.10;99.90
8711;DHT22;4392;47.400;8.062;2023-09-08T07:59:36;23.10;99.90
8711;DHT22;4392;47.400;8.062;2023-09-08T08:02:04;23.00;99.90
8711;DHT22;4392;47.400;8.062;2023-09-08T08:04:32;23.10;99.90
8711;DHT22;4392;47.400;8.062;2023-09-08T08:07:02;23.10;99.90
8711;DHT22;4392;47.400;8.062;2023-09-08T08:09:28;23.30;99.90
8711;DHT22;4392;47.400;8.062;2023-09-08T08:11:55;23.30;99.90
8711;DHT22;4392;47.400;8.062;2023-09-08T08:14:21;23.40;99.90
8711;DHT22;4392;47.400;8.062;2023-09-08T08:16:47;23.50;99.90
8711;DHT22;4392;47.400;8.062;2023-09-08T08:19:12;23.60;99.90
8711;DHT22;4392;47.400;8.062;2023-09-08T08:21:38;23.70;99.90
8711;DHT22;4392;47.400;8.062;2023-09-08T08:24:09;23.70;99.90
8711;DHT22;4392;47.400;8.062;2023-09-08T08:26:37;23.60;99.90
8711;DHT22;4392;47.400;8.062;2023-09-08T08:29:03;23.80;99.90
8711;DHT22;4392;47.400;8.062;2023-09-08T08:31:31;23.70;99.90
8711;DHT22;4392;47.400;8.062;2023-09-08T08:33:59;23.70;99.90
8711;DHT22;4392;47.400;8.062;2023-09-08T08:36:24;23.70;99.90
8711;DHT22;4392;47.400;8.062;2023-09-08T08:38:50;23.80;99.90
8711;DHT22;4392;47.400;8.062;2023-09-08T08:41:16;23.80;99.90
8711;DHT22;4392;47.400;8.062;2023-09-08T08:43:45;23.80;99.90
8711;DHT22;4392;47.400;8.062;2023-09-08T08:46:13;23.70;99.90
8711;DHT22;4392;47.400;8.062;2023-09-08T08:48:40;23.80;99.90
8711;DHT22;4392;47.400;8.062;2023-09-08T08:51:12;23.80;99.90
8711;DHT22;4392;47.400;8.062;2023-09-08T08:53:39;23.90;99.90
8711;DHT22;4392;47.400;8.062;2023-09-08T08:56:06;24.00;99.90
8711;DHT22;4392;47.400;8.062;2023-09-08T08:58:35;24.10;99.90
8711;DHT22;4392;47.400;8.062;2023-09-08T09:01:01;24.00;99.90
8711;DHT22;4392;47.400;8.062;2023-09-08T09:03:28;24.10;99.90
8711;DHT22;4392;47.400;8.062;2023-09-08T09:05:56;24.20;99.90
8711;DHT22;4392;47.400;8.062;2023-09-08T09:08:24;24.20;99.90
8711;DHT22;4392;47.400;8.062;2023-09-08T09:10:51;24.20;99.90
8711;DHT22;4392;47.400;8.062;2023-09-08T09:13:17;24.30;99.90
8711;DHT22;4392;47.400;8.062;2023-09-08T09:15:43;24.20;99.90
8711;DHT22;4392;47.400;8.062;2023-09-08T09:18:10;24.40;99.90
8711;DHT22;4392;47.400;8.062;2023-09-08T09:20:36;24.40;99.90
8711;DHT22;4392;47.400;8.062;2023-09-08T09:23:07;24.40;99.90
8711;DHT22;4392;47.400;8.062;2023-09-08T09:25:33;24.50;99.90
8711;DHT22;4392;47.400;8.062;2023-09-08T09:28:10;24.50;99.90
8711;DHT22;4392;47.400;8.062;2023-09-08T09:30:55;24.50;99.90
8711;DHT22;4392;47.400;8.062;2023-09-08T09:33:22;24.50;99.90
8711;DHT22;4392;47.400;8.062;2023-09-08T09:35:51;24.40;99.90
8711;DHT22;4392;47.400;8.062;2023-09-08T09:38:17;24.50;99.90
8711;DHT22;4392;47.400;8.062;2023-09-08T09:40:47;24.60;99.90
8711;DHT22;4392;47.400;8.062;2023-09-08T09:43:15;24.60;99.90
8711;DHT22;4392;47.400;8.062;2023-09-08T09:45:46;24.60;99.90
8711;DHT22;4392;47.400;8.062;2023-09-08T09:48:12;24.60;99.90
8711;DHT22;4392;47.400;8.062;2023-09-08T09:50:46;24.60;99.90
8711;DHT22;4392;47.400;8.062;2023-09-08T09:53:23;24.60;99.90
8711;DHT22;4392;47.400;8.062;2023-09-08T09:55:51;24.60;99.90
8711;DHT22;4392;47.400;8.062;2023-09-08T09:58:23;24.70;99.90
8711;DHT22;4392;47.400;8.062;2023-09-08T10:00:50;24.60;99.90
8711;DHT22;4392;47.400;8.062;2023-09-08T10:03:17;24.60;99.90
8711;DHT22;4392;47.400;8.062;2023-09-08T10:05:44;24.60;99.90
8711;DHT22;4392;47.400;8.062;2023-09-08T10:08:12;24.60;99.90
8711;DHT22;4392;47.400;8.062;2023-09-08T10:10:40;24.60;99.90
8711;DHT22;4392;47.400;8.062;2023-09-08T10:13:12;24.60;99.90
8711;DHT22;4392;47.400;8.062;2023-09-08T10:15:50;24.60;99.90
8711;DHT22;4392;47.400;8.062;2023-09-08T10:18:19;24.80;99.90
8711;DHT22;4392;47.400;8.062;2023-09-08T10:20:46;24.90;99.90
8711;DHT22;4392;47.400;8.062;2023-09-08T10:23:41;24.90;99.90
8711;DHT22;4392;47.400;8.062;2023-09-08T10:26:11;24.90;99.90
8711;DHT22;4392;47.400;8.062;2023-09-08T10:28:38;24.90;99.90
8711;DHT22;4392;47.400;8.062;2023-09-08T10:31:05;24.90;99.90
8711;DHT22;4392;47.400;8.062;2023-09-08T10:33:31;25.00;99.90
8711;DHT22;4392;47.400;8.062;2023-09-08T10:35:59;25.00;99.90
8711;DHT22;4392;47.400;8.062;2023-09-08T10:38:33;25.00;99.90
8711;DHT22;4392;47.400;8.062;2023-09-08T10:43:56;25.20;99.90
8711;DHT22;4392;47.400;8.062;2023-09-08T10:46:23;25.20;99.90
8711;DHT22;4392;47.400;8.062;2023-09-08T10:48:49;25.20;99.90
8711;DHT22;4392;47.400;8.062;2023-09-08T10:51:18;25.20;99.90
8711;DHT22;4392;47.400;8.062;2023-09-08T10:53:47;25.20;99.90
8711;DHT22;4392;47.400;8.062;2023-09-08T10:56:17;25.20;99.90
8711;DHT22;4392;47.400;8.062;2023-09-08T10:58:51;25.30;99.90
8711;DHT22;4392;47.400;8.062;2023-09-08T11:01:22;25.40;99.90
8711;DHT22;4392;47.400;8.062;2023-09-08T11:03:52;25.40;99.90
8711;DHT22;4392;47.400;8.062;2023-09-08T11:06:20;25.40;99.90
8711;DHT22;4392;47.400;8.062;2023-09-08T11:09:01;25.50;99.90
8711;DHT22;4392;47.400;8.062;2023-09-08T11:11:37;25.50;99.90
8711;DHT22;4392;47.400;8.062;2023-09-08T11:14:04;25.50;99.90
8711;DHT22;4392;47.400;8.062;2023-09-08T11:16:30;25.60;99.90
8711;DHT22;4392;47.400;8.062;2023-09-08T11:19:02;25.60;99.90
8711;DHT22;4392;47.400;8.062;2023-09-08T11:21:30;25.60;99.90
8711;DHT22;4392;47.400;8.062;2023-09-08T11:24:02;25.60;99.90
8711;DHT22;4392;47.400;8.062;2023-09-08T11:26:33;25.70;99.90
8711;DHT22;4392;47.400;8.062;2023-09-08T11:29:02;25.80;99.90
8711;DHT22;4392;47.400;8.062;2023-09-08T11:31:29;25.90;99.90
8711;DHT22;4392;47.400;8.062;2023-09-08T11:33:55;25.90;99.90
8711;DHT22;4392;47.400;8.062;2023-09-08T11:36:25;25.90;99.90
8711;DHT22;4392;47.400;8.062;2023-09-08T11:38:52;25.90;99.90
8711;DHT22;4392;47.400;8.062;2023-09-08T11:41:18;25.90;99.90
8711;DHT22;4392;47.400;8.062;2023-09-08T11:43:49;25.90;99.90
8711;DHT22;4392;47.400;8.062;2023-09-08T11:46:17;25.90;99.90
8711;DHT22;4392;47.400;8.062;2023-09-08T11:48:51;25.90;99.90
8711;DHT22;4392;47.400;8.062;2023-09-08T11:51:25;25.90;99.90
8711;DHT22;4392;47.400;8.062;2023-09-08T11:53:51;25.90;99.90
8711;DHT22;4392;47.400;8.062;2023-09-08T11:56:17;26.00;99.90
8711;DHT22;4392;47.400;8.062;2023-09-08T11:58:49;26.10;99.90
8711;DHT22;4392;47.400;8.062;2023-09-08T12:01:15;26.20;99.90
8711;DHT22;4392;47.400;8.062;2023-09-08T12:03:52;26.30;99.90
8711;DHT22;4392;47.400;8.062;2023-09-08T12:06:18;26.30;99.90
8711;DHT22;4392;47.400;8.062;2023-09-08T12:08:46;26.30;99.90
8711;DHT22;4392;47.400;8.062;2023-09-08T12:11:12;26.30;99.90
8711;DHT22;4392;47.400;8.062;2023-09-08T12:13:40;26.50;99.90
8711;DHT22;4392;47.400;8.062;2023-09-08T12:16:26;26.50;99.90
8711;DHT22;4392;47.400;8.062;2023-09-08T12:18:52;26.50;99.90
8711;DHT22;4392;47.400;8.062;2023-09-08T12:21:17;26.50;99.90
8711;DHT22;4392;47.400;8.062;2023-09-08T12:23:51;26.50;99.90
8711;DHT22;4392;47.400;8.062;2023-09-08T12:26:17;26.50;99.90
8711;DHT22;4392;47.400;8.062;2023-09-08T12:28:44;26.70;99.90
8711;DHT22;4392;47.400;8.062;2023-09-08T12:31:17;26.80;99.90
8711;DHT22;4392;47.400;8.062;2023-09-08T12:33:43;26.80;99.90
8711;DHT22;4392;47.400;8.062;2023-09-08T12:36:18;26.80;99.90
8711;DHT22;4392;47.400;8.062;2023-09-08T12:38:51;26.80;99.90
8711;DHT22;4392;47.400;8.062;2023-09-08T12:41:19;26.90;99.90
8711;DHT22;4392;47.400;8.062;2023-09-08T12:43:50;27.00;99.90
8711;DHT22;4392;47.400;8.062;2023-09-08T12:46:24;27.10;99.90
8711;DHT22;4392;47.400;8.062;2023-09-08T12:48:50;27.20;99.90
8711;DHT22;4392;47.400;8.062;2023-09-08T12:51:18;27.00;99.90
8711;DHT22;4392;47.400;8.062;2023-09-08T12:53:46;26.80;99.90
8711;DHT22;4392;47.400;8.062;2023-09-08T12:56:12;26.90;99.50
8711;DHT22;4392;47.400;8.062;2023-09-08T12:58:40;27.00;94.90
8711;DHT22;4392;47.400;8.062;2023-09-08T13:01:06;27.10;94.80
8711;DHT22;4392;47.400;8.062;2023-09-08T13:03:32;27.30;93.10
8711;DHT22;4392;47.400;8.062;2023-09-08T13:05:58;27.30;92.60
8711;DHT22;4392;47.400;8.062;2023-09-08T13:08:23;27.50;91.90
8711;DHT22;4392;47.400;8.062;2023-09-08T13:10:52;27.60;91.30
8711;DHT22;4392;47.400;8.062;2023-09-08T13:13:17;27.70;91.60
8711;DHT22;4392;47.400;8.062;2023-09-08T13:15:43;27.70;91.00
8711;DHT22;4392;47.400;8.062;2023-09-08T13:18:09;27.90;90.30
8711;DHT22;4392;47.400;8.062;2023-09-08T13:20:37;27.90;90.00
8711;DHT22;4392;47.400;8.062;2023-09-08T13:23:03;28.20;86.90
8711;DHT22;4392;47.400;8.062;2023-09-08T13:25:31;28.30;86.30
8711;DHT22;4392;47.400;8.062;2023-09-08T13:27:59;28.10;86.50
8711;DHT22;4392;47.400;8.062;2023-09-08T13:30:24;28.10;86.50
8711;DHT22;4392;47.400;8.062;2023-09-08T13:32:54;28.10;85.90
8711;DHT22;4392;47.400;8.062;2023-09-08T13:35:27;28.30;84.80
8711;DHT22;4392;47.400;8.062;2023-09-08T13:37:53;28.40;85.40
8711;DHT22;4392;47.400;8.062;2023-09-08T13:40:21;28.60;84.70
8711;DHT22;4392;47.400;8.062;2023-09-08T13:42:49;28.70;83.50
8711;DHT22;4392;47.400;8.062;2023-09-08T13:45:17;28.70;84.20
8711;DHT22;4392;47.400;8.062;2023-09-08T13:47:49;28.70;84.10
8711;DHT22;4392;47.400;8.062;2023-09-08T13:50:15;28.80;81.80
8711;DHT22;4392;47.400;8.062;2023-09-08T13:52:41;29.00;77.60
8711;DHT22;4392;47.400;8.062;2023-09-08T13:55:12;29.20;76.80
8711;DHT22;4392;47.400;8.062;2023-09-08T13:57:38;29.30;75.70
8711;DHT22;4392;47.400;8.062;2023-09-08T14:00:04;29.40;75.00
8711;DHT22;4392;47.400;8.062;2023-09-08T14:02:30;29.50;73.90
8711;DHT22;4392;47.400;8.062;2023-09-08T14:04:57;29.60;72.20
8711;DHT22;4392;47.400;8.062;2023-09-08T14:07:23;29.60;72.30
8711;DHT22;4392;47.400;8.062;2023-09-08T14:09:48;29.70;71.00
8711;DHT22;4392;47.400;8.062;2023-09-08T14:12:15;29.90;71.10
8711;DHT22;4392;47.400;8.062;2023-09-08T14:14:41;29.80;69.50
8711;DHT22;4392;47.400;8.062;2023-09-08T14:17:13;29.80;69.70
8711;DHT22;4392;47.400;8.062;2023-09-08T14:19:38;29.80;69.90
8711;DHT22;4392;47.400;8.062;2023-09-08T14:22:04;29.90;68.90
8711;DHT22;4392;47.400;8.062;2023-09-08T14:24:30;29.90;67.70
8711;DHT22;4392;47.400;8.062;2023-09-08T14:27:00;30.10;67.70
8711;DHT22;4392;47.400;8.062;2023-09-08T14:29:26;30.10;65.50
8711;DHT22;4392;47.400;8.062;2023-09-08T14:31:52;30.10;65.20
8711;DHT22;4392;47.400;8.062;2023-09-08T14:34:18;30.30;65.50
8711;DHT22;4392;47.400;8.062;2023-09-08T14:36:44;30.40;65.30
8711;DHT22;4392;47.400;8.062;2023-09-08T14:39:16;30.50;65.00
8711;DHT22;4392;47.400;8.062;2023-09-08T14:41:44;30.50;64.90
8711;DHT22;4392;47.400;8.062;2023-09-08T14:44:20;30.60;64.20
8711;DHT22;4392;47.400;8.062;2023-09-08T14:46:51;30.60;65.00
8711;DHT22;4392;47.400;8.062;2023-09-08T14:49:17;30.60;65.50
8711;DHT22;4392;47.400;8.062;2023-09-08T14:51:43;30.80;66.30
8711;DHT22;4392;47.400;8.062;2023-09-08T14:54:09;30.90;66.10
8711;DHT22;4392;47.400;8.062;2023-09-08T14:56:34;30.90;64.50
8711;DHT22;4392;47.400;8.062;2023-09-08T14:59:05;31.00;61.10
8711;DHT22;4392;47.400;8.062;2023-09-08T15:01:31;30.90;62.40
8711;DHT22;4392;47.400;8.062;2023-09-08T15:04:04;30.90;62.20
8711;DHT22;4392;47.400;8.062;2023-09-08T15:06:30;30.90;61.30
8711;DHT22;4392;47.400;8.062;2023-09-08T15:08:55;31.20;60.20
8711;DHT22;4392;47.400;8.062;2023-09-08T15:11:21;31.20;60.90
8711;DHT22;4392;47.400;8.062;2023-09-08T15:13:46;31.10;60.60
8711;DHT22;4392;47.400;8.062;2023-09-08T15:16:17;31.20;59.40
8711;DHT22;4392;47.400;8.062;2023-09-08T15:18:43;31.10;59.60
8711;DHT22;4392;47.400;8.062;2023-09-08T15:21:09;31.10;60.10
8711;DHT22;4392;47.400;8.062;2023-09-08T15:23:34;31.30;59.20
8711;DHT22;4392;47.400;8.062;2023-09-08T15:26:06;31.40;58.60
8711;DHT22;4392;47.400;8.062;2023-09-08T15:28:33;31.30;59.80
8711;DHT22;4392;47.400;8.062;2023-09-08T15:30:59;31.30;59.10
8711;DHT22;4392;47.400;8.062;2023-09-08T15:33:24;31.50;60.00
8711;DHT22;4392;47.400;8.062;2023-09-08T15:35:55;31.50;58.90
8711;DHT22;4392;47.400;8.062;2023-09-08T15:38:20;31.50;57.90
8711;DHT22;4392;47.400;8.062;2023-09-08T15:43:41;31.80;56.80
8711;DHT22;4392;47.400;8.062;2023-09-08T15:46:10;32.00;56.10
8711;DHT22;4392;47.400;8.062;2023-09-08T15:48:44;32.00;55.40
8711;DHT22;4392;47.400;8.062;2023-09-08T15:51:10;32.10;54.80
8711;DHT22;4392;47.400;8.062;2023-09-08T15:53:39;31.80;55.20
8711;DHT22;4392;47.400;8.062;2023-09-08T15:56:07;31.80;55.60
8711;DHT22;4392;47.400;8.062;2023-09-08T15:58:34;31.80;55.50
8711;DHT22;4392;47.400;8.062;2023-09-08T16:01:05;32.00;54.30
8711;DHT22;4392;47.400;8.062;2023-09-08T16:03:33;32.20;53.30
8711;DHT22;4392;47.400;8.062;2023-09-08T16:06:05;32.30;53.60
8711;DHT22;4392;47.400;8.062;2023-09-08T16:08:31;32.30;53.60
8711;DHT22;4392;47.400;8.062;2023-09-08T16:10:59;32.40;53.70
8711;DHT22;4392;47.400;8.062;2023-09-08T16:13:30;32.30;53.80
8711;DHT22;4392;47.400;8.062;2023-09-08T16:15:56;32.40;54.00
8711;DHT22;4392;47.400;8.062;2023-09-08T16:18:22;32.20;53.30
8711;DHT22;4392;47.400;8.062;2023-09-08T16:20:48;32.20;53.10